Time,TemperatureF,DewpointF,PressureIn,WindDirection,WindDirectionDegrees,WindSpeedMPH,WindSpeedGustMPH,Humidity,HourlyPrecipIn,Conditions,Clouds,dailyrainin,SolarRadiationWatts/m^2,SoftwareType,DateUTC
2013-04-10 00:02:00,31.0,21.0,-100.00,SSE,153,4.0,7.0,66,0.00,,,-99.99,0.000000,,2013-04-10 06:02:00,
2013-04-10 00:12:00,31.0,20.0,-100.00,SSE,159,5.0,7.0,65,0.00,,,-99.99,0.000000,,2013-04-10 06:12:00,
2013-04-10 00:21:00,30.0,21.0,-100.00,SSE,154,5.0,6.0,68,0.00,,,-99.99,0.000000,,2013-04-10 06:21:00,
2013-04-10 00:32:00,30.0,21.0,-100.00,SSE,163,5.0,6.0,69,0.00,,,-99.99,0.000000,,2013-04-10 06:32:00,
2013-04-10 00:42:00,29.0,20.0,-100.00,SSE,160,6.0,7.0,69,0.00,,,-99.99,0.000000,,2013-04-10 06:42:00,
2013-04-10 00:52:00,29.0,20.0,-100.00,SSE,151,6.0,8.0,68,0.00,,,-99.99,0.000000,,2013-04-10 06:52:00,
2013-04-10 01:02:00,30.0,20.0,-100.00,SSE,151,6.0,8.0,66,0.00,,,-99.99,0.000000,,2013-04-10 07:02:00,
2013-04-10 01:11:00,29.0,20.0,-100.00,SE,146,5.0,7.0,68,0.00,,,-99.99,0.000000,,2013-04-10 07:11:00,
2013-04-10 01:22:00,30.0,19.0,-100.00,SSE,160,5.0,7.0,65,0.00,,,-99.99,0.000000,,2013-04-10 07:22:00,
2013-04-10 01:32:00,30.0,19.0,-100.00,South,176,6.0,8.0,64,0.00,,,-99.99,0.000000,,2013-04-10 07:32:00,
2013-04-10 01:42:00,30.0,19.0,-100.00,South,173,4.0,6.0,63,0.00,,,-99.99,0.000000,,2013-04-10 07:42:00,
2013-04-10 01:52:00,30.0,19.0,-100.00,South,169,3.0,5.0,65,0.00,,,-99.99,0.000000,,2013-04-10 07:52:00,
2013-04-10 02:01:00,29.0,19.0,-100.00,SSE,168,6.0,8.0,68,0.00,,,-99.99,0.000000,,2013-04-10 08:01:00,
2013-04-10 02:11:00,28.0,19.0,-100.00,SSE,167,5.0,7.0,69,0.00,,,-99.99,0.000000,,2013-04-10 08:11:00,
2013-04-10 02:21:00,28.0,19.0,-100.00,SSE,159,6.0,7.0,69,0.00,,,-99.99,0.000000,,2013-04-10 08:21:00,
2013-04-10 02:32:00,28.0,19.0,-100.00,SSE,159,6.0,9.0,67,0.00,,,-99.99,0.000000,,2013-04-10 08:32:00,
2013-04-10 02:42:00,30.0,19.0,-100.00,SSE,152,4.0,8.0,61,0.00,,,-99.99,0.000000,,2013-04-10 08:42:00,
2013-04-10 02:50:00,31.0,18.0,-100.00,SW,221,4.0,7.0,58,0.00,,,-99.99,0.000000,,2013-04-10 08:50:00,
2013-04-10 02:51:00,31.0,18.0,-100.00,SSW,199,5.0,7.0,59,0.00,,,-99.99,0.000000,,2013-04-10 08:51:00,
2013-04-10 03:02:00,32.0,18.0,-100.00,SSW,208,5.0,10.0,56,0.00,,,-99.99,0.000000,,2013-04-10 09:02:00,
2013-04-10 03:12:00,31.0,18.0,-100.00,SW,221,4.0,7.0,58,0.00,,,-99.99,0.000000,,2013-04-10 09:12:00,
2013-04-10 03:21:00,31.0,18.0,-100.00,SW,221,4.0,7.0,58,0.00,,,-99.99,0.000000,,2013-04-10 09:21:00,
2013-04-10 03:32:00,31.0,18.0,-100.00,SW,221,4.0,7.0,58,0.00,,,-99.99,0.000000,,2013-04-10 09:32:00,
2013-04-10 03:42:00,31.0,18.0,-100.00,SW,221,4.0,7.0,58,0.00,,,-99.99,0.000000,,2013-04-10 09:42:00,
2013-04-10 04:23:00,29.0,17.0,-100.00,SSW,198,6.0,8.0,60,0.00,,,-99.99,0.000000,,2013-04-10 10:23:00,
2013-04-10 04:33:00,29.0,18.0,-100.00,South,190,6.0,9.0,61,0.00,,,-99.99,0.000000,,2013-04-10 10:33:00,
2013-04-10 04:43:00,30.0,18.0,-100.00,South,185,5.0,9.0,60,0.00,,,-99.99,0.000000,,2013-04-10 10:43:00,
2013-04-10 04:52:00,30.0,17.0,-100.00,SSW,194,6.0,9.0,59,0.00,,,-99.99,0.000000,,2013-04-10 10:52:00,
2013-04-10 05:02:00,30.0,17.0,-100.00,South,187,6.0,8.0,59,0.00,,,-99.99,0.000000,,2013-04-10 11:02:00,
2013-04-10 05:12:00,28.0,18.0,-100.00,SSE,166,5.0,8.0,64,0.00,,,-99.99,0.000000,,2013-04-10 11:12:00,
2013-04-10 05:22:00,29.0,17.0,-100.00,SSE,154,7.0,9.0,61,0.00,,,-99.99,0.000000,,2013-04-10 11:22:00,
2013-04-10 05:32:00,30.0,17.0,-100.00,South,175,6.0,7.0,58,0.00,,,-99.99,0.000000,,2013-04-10 11:32:00,
2013-04-10 05:42:00,30.0,17.0,-100.00,South,191,5.0,9.0,58,0.00,,,-99.99,0.000000,,2013-04-10 11:42:00,
2013-04-10 05:52:00,29.0,16.0,-100.00,SSW,206,6.0,8.0,59,0.00,,,-99.99,0.000000,,2013-04-10 11:52:00,
2013-04-10 06:02:00,29.0,16.0,-100.00,SSW,204,6.0,8.0,59,0.00,,,-99.99,0.000000,,2013-04-10 12:02:00,
2013-04-10 06:12:00,29.0,16.0,-100.00,SSW,201,6.0,8.0,58,0.00,,,-99.99,0.000000,,2013-04-10 12:12:00,
2013-04-10 06:22:00,29.0,16.0,-100.00,SSW,205,5.0,7.0,58,0.00,,,-99.99,0.000000,,2013-04-10 12:22:00,
2013-04-10 06:32:00,29.0,17.0,-100.00,South,180,5.0,7.0,60,0.00,,,-99.99,0.000000,,2013-04-10 12:32:00,
2013-04-10 06:42:00,27.0,16.0,-100.00,South,169,4.0,6.0,62,0.00,,,-99.99,0.000000,,2013-04-10 12:42:00,
2013-04-10 06:51:00,28.0,16.0,-100.00,SSE,151,4.0,6.0,61,0.00,,,-99.99,0.000000,,2013-04-10 12:51:00,
2013-04-10 07:02:00,28.0,16.0,-100.00,SSE,165,4.0,7.0,61,0.00,,,-99.99,0.000000,,2013-04-10 13:02:00,
2013-04-10 07:12:00,28.0,16.0,-100.00,SSW,195,5.0,7.0,61,0.00,,,-99.99,2.000000,,2013-04-10 13:12:00,
2013-04-10 07:22:00,27.0,16.0,-100.00,South,171,4.0,7.0,62,0.00,,,-99.99,6.000000,,2013-04-10 13:22:00,
2013-04-10 07:32:00,27.0,16.0,-100.00,South,184,4.0,6.0,62,0.00,,,-99.99,9.000000,,2013-04-10 13:32:00,
2013-04-10 07:41:00,27.0,16.0,-100.00,South,183,4.0,6.0,63,0.00,,,-99.99,13.000000,,2013-04-10 13:41:00,
2013-04-10 07:50:00,29.0,17.0,-100.00,SSE,166,6.0,9.0,62,0.00,,,-99.99,127.000000,,2013-04-10 13:50:00,
2013-04-10 07:52:00,28.0,16.0,-100.00,SSE,160,6.0,8.0,60,0.00,,,-99.99,16.000000,,2013-04-10 13:52:00,
2013-04-10 08:02:00,28.0,17.0,-100.00,SSE,159,6.0,7.0,63,0.00,,,-99.99,99.000000,,2013-04-10 14:02:00,
2013-04-10 08:12:00,29.0,17.0,-100.00,SSE,166,6.0,9.0,62,0.00,,,-99.99,127.000000,,2013-04-10 14:12:00,
2013-04-10 08:21:00,29.0,17.0,-100.00,SSE,166,6.0,9.0,62,0.00,,,-99.99,127.000000,,2013-04-10 14:21:00,
2013-04-10 08:32:00,29.0,17.0,-100.00,SSE,166,6.0,9.0,62,0.00,,,-99.99,127.000000,,2013-04-10 14:32:00,
2013-04-10 08:41:00,29.0,17.0,-100.00,SSE,166,6.0,9.0,62,0.00,,,-99.99,127.000000,,2013-04-10 14:41:00,
2013-04-10 09:33:00,34.0,19.0,-100.00,SE,126,3.0,5.0,54,0.00,,,-99.99,358.000000,,2013-04-10 15:33:00,
2013-04-10 09:43:00,34.0,19.0,-100.00,SE,126,3.0,5.0,54,0.00,,,-99.99,358.000000,,2013-04-10 15:43:00,
2013-04-10 09:52:00,35.0,19.0,-100.00,SSE,158,4.0,5.0,52,0.00,,,-99.99,413.000000,,2013-04-10 15:52:00,
2013-04-10 10:02:00,36.0,20.0,-100.00,East,98,2.0,4.0,51,0.00,,,-99.99,444.000000,,2013-04-10 16:02:00,
2013-04-10 10:12:00,37.0,20.0,-100.00,East,91,2.0,3.0,51,0.00,,,-99.99,471.000000,,2013-04-10 16:12:00,
2013-04-10 10:23:00,37.0,20.0,-100.00,ESE,110,2.0,4.0,49,0.00,,,-99.99,503.000000,,2013-04-10 16:23:00,
2013-04-10 10:32:00,37.0,21.0,-100.00,South,178,3.0,4.0,51,0.00,,,-99.99,531.000000,,2013-04-10 16:32:00,
2013-04-10 10:42:00,38.0,19.0,-100.00,SE,140,2.0,5.0,45,0.00,,,-99.99,561.000000,,2013-04-10 16:42:00,
2013-04-10 10:52:00,39.0,23.0,-100.00,East,90,4.0,6.0,51,0.00,,,-99.99,602.000000,,2013-04-10 16:52:00,
2013-04-10 11:02:00,39.0,22.0,-100.00,SE,136,4.0,6.0,50,0.00,,,-99.99,612.000000,,2013-04-10 17:02:00,
2013-04-10 11:12:00,38.0,21.0,-100.00,West,265,5.0,9.0,49,0.00,,,-99.99,645.000000,,2013-04-10 17:12:00,
2013-04-10 11:22:00,40.0,24.0,-100.00,WNW,287,4.0,6.0,52,0.00,,,-99.99,660.000000,,2013-04-10 17:22:00,
2013-04-10 11:32:00,39.0,22.0,-100.00,NW,312,6.0,9.0,50,0.00,,,-99.99,645.000000,,2013-04-10 17:32:00,
2013-04-10 11:42:00,40.0,25.0,-100.00,WNW,292,6.0,10.0,54,0.00,,,-99.99,660.000000,,2013-04-10 17:42:00,
2013-04-10 11:52:00,40.0,24.0,-100.00,NW,316,7.0,12.0,51,0.00,,,-99.99,674.000000,,2013-04-10 17:52:00,
2013-04-10 12:02:00,41.0,24.0,-100.00,WNW,292,4.0,6.0,50,0.00,,,-99.99,688.000000,,2013-04-10 18:02:00,
2013-04-10 12:12:00,40.0,24.0,-100.00,NW,309,5.0,8.0,52,0.00,,,-99.99,700.000000,,2013-04-10 18:12:00,
2013-04-10 12:22:00,41.0,24.0,-100.00,West,277,5.0,9.0,51,0.00,,,-99.99,715.000000,,2013-04-10 18:22:00,
2013-04-10 12:32:00,41.0,22.0,-100.00,South,178,3.0,5.0,47,0.00,,,-99.99,727.000000,,2013-04-10 18:32:00,
2013-04-10 12:42:00,41.0,24.0,-100.00,ENE,64,4.0,6.0,51,0.00,,,-99.99,734.000000,,2013-04-10 18:42:00,
2013-04-10 12:50:00,43.0,25.0,-100.00,East,96,4.0,7.0,48,0.00,,,-99.99,758.000000,,2013-04-10 18:50:00,
2013-04-10 12:52:00,41.0,24.0,-100.00,NW,308,5.0,7.0,50,0.00,,,-99.99,742.000000,,2013-04-10 18:52:00,
2013-04-10 13:02:00,43.0,27.0,-100.00,ESE,113,5.0,14.0,55,0.00,,,-99.99,752.000000,,2013-04-10 19:02:00,
2013-04-10 13:12:00,43.0,25.0,-100.00,East,96,4.0,7.0,48,0.00,,,-99.99,758.000000,,2013-04-10 19:12:00,
2013-04-10 13:22:00,43.0,25.0,-100.00,East,96,4.0,7.0,48,0.00,,,-99.99,758.000000,,2013-04-10 19:22:00,
2013-04-10 13:32:00,43.0,25.0,-100.00,East,96,4.0,7.0,48,0.00,,,-99.99,758.000000,,2013-04-10 19:32:00,
2013-04-10 13:42:00,43.0,25.0,-100.00,East,96,4.0,7.0,48,0.00,,,-99.99,758.000000,,2013-04-10 19:42:00,
2013-04-10 14:23:00,46.0,23.0,-100.00,WNW,286,7.0,10.0,40,0.00,,,-99.99,807.000000,,2013-04-10 20:23:00,
2013-04-10 14:33:00,47.0,26.0,-100.00,West,259,4.0,8.0,44,0.00,,,-99.99,761.000000,,2013-04-10 20:33:00,
2013-04-10 14:42:00,46.0,23.0,-100.00,West,281,6.0,11.0,39,0.00,,,-99.99,750.000000,,2013-04-10 20:42:00,
2013-04-10 14:52:00,46.0,23.0,-100.00,West,271,5.0,12.0,39,0.00,,,-99.99,209.000000,,2013-04-10 20:52:00,
2013-04-10 15:02:00,47.0,23.0,-100.00,West,270,5.0,7.0,39,0.00,,,-99.99,681.000000,,2013-04-10 21:02:00,
2013-04-10 15:12:00,48.0,24.0,-100.00,West,262,5.0,11.0,39,0.00,,,-99.99,823.000000,,2013-04-10 21:12:00,
2013-04-10 15:21:00,46.0,21.0,-100.00,SSW,205,7.0,11.0,37,0.00,,,-99.99,270.000000,,2013-04-10 21:21:00,
2013-04-10 15:32:00,46.0,23.0,-100.00,SW,229,5.0,8.0,40,0.00,,,-99.99,286.000000,,2013-04-10 21:32:00,
2013-04-10 15:42:00,47.0,24.0,-100.00,East,88,4.0,6.0,40,0.00,,,-99.99,303.000000,,2013-04-10 21:42:00,
2013-04-10 15:52:00,47.0,23.0,-100.00,SW,234,5.0,7.0,39,0.00,,,-99.99,326.000000,,2013-04-10 21:52:00,
2013-04-10 16:02:00,47.0,23.0,-100.00,NNW,329,5.0,9.0,38,0.00,,,-99.99,336.000000,,2013-04-10 22:02:00,
2013-04-10 16:12:00,47.0,24.0,-100.00,SSW,206,4.0,5.0,39,0.00,,,-99.99,337.000000,,2013-04-10 22:12:00,
2013-04-10 16:22:00,48.0,23.0,-100.00,West,261,3.0,6.0,37,0.00,,,-99.99,306.000000,,2013-04-10 22:22:00,
2013-04-10 16:33:00,48.0,24.0,-100.00,West,275,4.0,7.0,38,0.00,,,-99.99,278.000000,,2013-04-10 22:33:00,
2013-04-10 16:42:00,48.0,23.0,-100.00,WNW,303,4.0,11.0,37,0.00,,,-99.99,286.000000,,2013-04-10 22:42:00,
2013-04-10 16:52:00,48.0,25.0,-100.00,SW,231,1.0,3.0,39,0.00,,,-99.99,279.000000,,2013-04-10 22:52:00,
2013-04-10 17:02:00,49.0,23.0,-100.00,WNW,301,3.0,5.0,36,0.00,,,-99.99,238.000000,,2013-04-10 23:02:00,
2013-04-10 17:12:00,48.0,23.0,-100.00,SE,137,3.0,6.0,37,0.00,,,-99.99,225.000000,,2013-04-10 23:12:00,
2013-04-10 17:22:00,48.0,23.0,-100.00,ESE,110,4.0,8.0,36,0.00,,,-99.99,245.000000,,2013-04-10 23:22:00,
2013-04-10 17:32:00,49.0,24.0,-100.00,ESE,114,4.0,8.0,38,0.00,,,-99.99,348.000000,,2013-04-10 23:32:00,
2013-04-10 17:42:00,49.0,24.0,-100.00,ENE,77,5.0,7.0,38,0.00,,,-99.99,219.000000,,2013-04-10 23:42:00,
2013-04-10 17:50:00,49.0,22.0,-100.00,SSW,204,6.0,10.0,35,0.00,,,-99.99,144.000000,,2013-04-10 23:50:00,
2013-04-10 17:52:00,50.0,25.0,-100.00,SE,142,2.0,6.0,38,0.00,,,-99.99,638.000000,,2013-04-10 23:52:00,
2013-04-10 18:02:00,50.0,24.0,-100.00,SE,126,3.0,7.0,37,0.00,,,-99.99,246.000000,,2013-04-11 00:02:00,
2013-04-10 18:11:00,49.0,22.0,-100.00,SSW,204,6.0,10.0,35,0.00,,,-99.99,144.000000,,2013-04-11 00:11:00,
2013-04-10 18:21:00,49.0,22.0,-100.00,SSW,204,6.0,10.0,35,0.00,,,-99.99,144.000000,,2013-04-11 00:21:00,
2013-04-10 18:32:00,49.0,22.0,-100.00,SSW,204,6.0,10.0,35,0.00,,,-99.99,144.000000,,2013-04-11 00:32:00,
2013-04-10 18:42:00,49.0,22.0,-100.00,SSW,204,6.0,10.0,35,0.00,,,-99.99,144.000000,,2013-04-11 00:42:00,
2013-04-10 19:22:00,47.0,30.0,-100.00,ESE,106,1.0,2.0,51,0.00,,,-99.99,56.000000,,2013-04-11 01:22:00,
2013-04-10 19:32:00,46.0,26.0,-100.00,SSW,197,2.0,3.0,45,0.00,,,-99.99,46.000000,,2013-04-11 01:32:00,
2013-04-10 19:42:00,46.0,27.0,-100.00,SSE,164,1.0,2.0,47,0.00,,,-99.99,38.000000,,2013-04-11 01:42:00,
2013-04-10 19:52:00,46.0,28.0,-100.00,SSE,148,3.0,4.0,50,0.00,,,-99.99,33.000000,,2013-04-11 01:52:00,
2013-04-10 20:02:00,45.0,26.0,-100.00,SSE,163,2.0,4.0,46,0.00,,,-99.99,18.000000,,2013-04-11 02:02:00,
2013-04-10 20:12:00,45.0,29.0,-100.00,South,189,1.0,4.0,53,0.00,,,-99.99,7.000000,,2013-04-11 02:12:00,
2013-04-10 20:21:00,44.0,27.0,-100.00,SSE,166,4.0,6.0,51,0.00,,,-99.99,2.000000,,2013-04-11 02:21:00,
2013-04-10 20:32:00,44.0,28.0,-100.00,South,189,4.0,6.0,53,0.00,,,-99.99,1.000000,,2013-04-11 02:32:00,
2013-04-10 20:42:00,44.0,28.0,-100.00,South,189,4.0,6.0,53,0.00,,,-99.99,1.000000,,2013-04-11 02:42:00,
2013-04-10 20:52:00,43.0,29.0,-100.00,SSE,165,5.0,6.0,57,0.00,,,-99.99,0.000000,,2013-04-11 02:52:00,
2013-04-10 21:02:00,42.0,30.0,-100.00,SSE,164,5.0,6.0,62,0.00,,,-99.99,0.000000,,2013-04-11 03:02:00,
2013-04-10 21:12:00,41.0,29.0,-100.00,SSE,166,5.0,6.0,61,0.00,,,-99.99,0.000000,,2013-04-11 03:12:00,
2013-04-10 21:22:00,41.0,29.0,-100.00,South,175,5.0,6.0,62,0.00,,,-99.99,0.000000,,2013-04-11 03:22:00,
2013-04-10 21:33:00,40.0,28.0,-100.00,South,180,5.0,6.0,60,0.00,,,-99.99,0.000000,,2013-04-11 03:33:00,
2013-04-10 21:43:00,41.0,28.0,-100.00,South,177,4.0,6.0,59,0.00,,,-99.99,0.000000,,2013-04-11 03:43:00,
2013-04-10 21:53:00,40.0,28.0,-100.00,South,180,5.0,7.0,62,0.00,,,-99.99,0.000000,,2013-04-11 03:53:00,
2013-04-10 22:03:00,40.0,29.0,-100.00,SSE,165,5.0,7.0,65,0.00,,,-99.99,0.000000,,2013-04-11 04:03:00,
2013-04-10 22:12:00,40.0,29.0,-100.00,South,173,5.0,7.0,64,0.00,,,-99.99,0.000000,,2013-04-11 04:12:00,
2013-04-10 22:22:00,39.0,28.0,-100.00,South,182,5.0,6.0,65,0.00,,,-99.99,0.000000,,2013-04-11 04:22:00,
2013-04-10 22:33:00,39.0,29.0,-100.00,SSE,161,5.0,7.0,66,0.00,,,-99.99,0.000000,,2013-04-11 04:33:00,
2013-04-10 22:42:00,40.0,29.0,-100.00,SSE,164,6.0,7.0,65,0.00,,,-99.99,0.000000,,2013-04-11 04:42:00,
2013-04-10 22:50:00,41.0,30.0,-100.00,SSE,163,5.0,7.0,65,0.00,,,-99.99,0.000000,,2013-04-11 04:50:00,
2013-04-10 22:52:00,40.0,29.0,-100.00,SSE,168,5.0,7.0,64,0.00,,,-99.99,0.000000,,2013-04-11 04:52:00,
2013-04-10 23:02:00,41.0,30.0,-100.00,SSE,162,5.0,6.0,66,0.00,,,-99.99,0.000000,,2013-04-11 05:02:00,
2013-04-10 23:12:00,41.0,30.0,-100.00,SSE,163,5.0,7.0,65,0.00,,,-99.99,0.000000,,2013-04-11 05:12:00,
2013-04-10 23:22:00,41.0,30.0,-100.00,SSE,163,5.0,7.0,65,0.00,,,-99.99,0.000000,,2013-04-11 05:22:00,
2013-04-10 23:32:00,41.0,30.0,-100.00,SSE,163,5.0,7.0,65,0.00,,,-99.99,0.000000,,2013-04-11 05:32:00,
2013-04-10 23:42:00,41.0,30.0,-100.00,SSE,163,5.0,7.0,65,0.00,,,-99.99,0.000000,,2013-04-11 05:42:00,